GMMXGCLP

Guest
Details From GMMX - MENARA
To GCLP - Gran Canaria
Flight Number -
Tags generated
Created
Modified
Stats Distance 450 nm / 834 km
Max Altitude 34,000 ft / 10,363 m
Waypoints 5
Social Downloads 4
Likes 0
Share VATSIM

Download

Looking for another format? Having issues loading an existing format? Contact us
Advertisement - Login to hide

Notes

Basic altitude profile: - Ascent Rate: 2500ft/min - Ascent Speed: 250kts - Cruise Altitude: 35000ft - Cruise Speed: 420kts - Descent Rate: 1500ft/min - Descent Speed: 250kts Options: - Use NATs: yes - Use PACOTS: yes - Use low airways: yes - Use high airways: yes

Route

GMMX ADM UG850S RUSIK UN869 FTV GCLP

ID Type Via Altitude Latitude Longitude Leg Dist Tot Dist Heading (true) Name
O GMMX APT - 0 ft / 0 m 31.60692˚ -8.03627˚ - 0 nm - MENARA
ADM VOR - 34,000 ft / 10,363 m 30.32194˚ -9.38333˚ 103 nm 103 nm 222° / 222° AGADIR VOR-DME
RUSIK FIX UG850S (AWY-HI) 30,700 ft / 9,357 m 28.90611˚ -12.81639˚ 198 nm 302 nm 245° / 244° -
FTV VOR UN869 (AWY-HI) 24,500 ft / 7,468 m 28.43078˚ -13.86450˚ 62 nm 364 nm 243° / 242° FUERTEVENTURA VOR-DME
O GCLP APT - 0 ft / 0 m 27.93154˚ -15.38559˚ 85 nm 450 nm 250° / 249° Gran Canaria

Altitude Profile

Advertisement - Login to hide

Weather


0- 5 10 15 20 25 30 35+ Temperature / ° C

Clouds and Precipitation
Forecast for 2018-05-27 12:00 UTC. Updated 40 minutes ago

Ground ~20,000 ft ~40,000 ft Winds

GMMX

Details ICAO GMMX (RAK)
Name MENARA
Region Morocco
Timezone Africa/Casablanca (UTC+0.0)
Stats Elevation 1,545 ft / 471 m (AMSL)
Location 31.606920° -8.036265°
Runways 1
Magnetic Variation 1.950° W

METAR

GMMX 271000Z 26004KT 230V300 9999 BKN026 18/12 Q1018 NOSIG

Decode

TAF

TAF GMMX 270500Z 2706/2812 30006KT 8000 BKN020 TEMPO 2714/2721 34014KT

Decode

Departure Runways

ID Width Length Bearing (true) Bearing (mag) Surface Threshold Offset Overrun Length
10 148 ft / 45 m 10,169 ft / 3,100 m 95.99° 97.94° Asphalt 918 ft / 280 m 0 ft / 0 m
28 148 ft / 45 m 10,169 ft / 3,100 m 276.00° 277.95° Asphalt 0 ft / 0 m 0 ft / 0 m

GCLP

Details ICAO GCLP (LPA)
Name Gran Canaria
Region Canary Islands
Timezone Atlantic/Canary (UTC+1.0)
Stats Elevation 77 ft / 23 m (AMSL)
Location 27.931544° -15.385592°
Runways 2
Magnetic Variation 4.633° W

METAR

GCLP 271000Z 02016KT 340V050 9999 FEW040 22/09 Q1021 NOSIG

Decode

TAF

TAF GCLP 270800Z 2709/2809 36018KT 9999 FEW030 TX24/2714Z TN17/2805Z= TAF AMD KMIB 270820Z 2708/2807 VRB06KT 9999 FEW160 QNH2965INS TEMPO 2708/2711 09030G40KT 6000 -TSRAGS OVC030CB BECMG 2712/2713 36009KT 9999 SCT040 OVC100 QNH2978INS TX20/2708Z TN17/2712Z

Decode

Destination Runways

ID Width Length Bearing (true) Bearing (mag) Surface Threshold Offset Overrun Length
03L 148 ft / 45 m 10,203 ft / 3,110 m 21.33° 25.96° Asphalt 0 ft / 0 m 656 ft / 200 m
03R 148 ft / 45 m 10,200 ft / 3,109 m 21.32° 25.95° Asphalt 0 ft / 0 m 673 ft / 205 m
21L 148 ft / 45 m 10,200 ft / 3,109 m 201.33° 205.96° Asphalt 0 ft / 0 m 689 ft / 210 m
21R 148 ft / 45 m 10,203 ft / 3,110 m 201.33° 205.96° Asphalt 0 ft / 0 m 755 ft / 230 m

Approach Navaids

Runway Type Ident Frequency Range Bearing (true) Bearing (mag) Slope Elevation
03L Localiser ILP 109.90 MHz 18 nm / 33 km 21.33° 25.96° - 77 ft / 23 m (AMSL)
03L Glidescope ILP 109.90 MHz 10 nm / 19 km 21.33° 25.96° 3.00° 102 ft / 31 m (AMSL)
03L DME ILP 109.90 MHz 18 nm / 33 km - - - 102 ft / 31 m (AMSL)
21R Localiser RLP 110.70 MHz 18 nm / 33 km 201.32° 205.96° - 77 ft / 23 m (AMSL)
21R Glidescope RLP 110.70 MHz 10 nm / 19 km 201.33° 205.96° 3.00° 77 ft / 23 m (AMSL)
21R DME RLP 110.70 MHz 18 nm / 33 km - - - 57 ft / 17 m (AMSL)

Popular Alternatives